Time;durP1;ratioP1;P1;durP2;ratioP2;P2;SDS_P1;SDS_P2;PMS_P1;PMS_P2;Temp;Humidity;BMP_temperature;BMP_pressure;BME280_temperature;BME280_humidity;BME280_pressure;Samples;Min_cycle;Max_cycle;Signal;HPM_P1;HPM_P2
2022/06/09 00:02:04;;;;;;;4.60;3.80;;;21.70;75.20;;;;;;5032920;28;20017;-57
2022/06/09 00:04:33;;;;;;;3.75;3.45;;;21.70;75.20;;;;;;5031767;28;20358;-57
2022/06/09 00:07:10;;;;;;;4.25;3.85;;;21.60;75.20;;;;;;5031910;28;20496;-57
2022/06/09 00:09:47;;;;;;;3.50;3.20;;;21.60;75.20;;;;;;5022705;28;20151;-57
2022/06/09 00:12:13;;;;;;;3.58;3.28;;;21.50;75.00;;;;;;5032676;28;20060;-56
2022/06/09 00:14:40;;;;;;;3.78;3.30;;;21.50;74.90;;;;;;5032690;28;20029;-56
2022/06/09 00:17:06;;;;;;;3.70;3.40;;;21.50;74.70;;;;;;5025097;28;20378;-57
2022/06/09 00:19:32;;;;;;;4.00;3.17;;;21.50;74.40;;;;;;5026977;28;20022;-57
2022/06/09 00:21:58;;;;;;;3.30;3.00;;;21.50;73.60;;;;;;5031444;28;20370;-57
2022/06/09 00:24:24;;;;;;;3.30;2.95;;;21.50;73.20;;;;;;5029448;28;20026;-57
2022/06/09 00:26:49;;;;;;;3.38;3.08;;;21.50;72.80;;;;;;5021652;28;20080;-57
2022/06/09 00:29:15;;;;;;;3.80;3.20;;;21.50;72.60;;;;;;5031006;28;20032;-57
2022/06/09 00:31:41;;;;;;;3.33;3.00;;;21.50;72.60;;;;;;5032533;28;20112;-57
2022/06/09 00:34:06;;;;;;;3.97;3.58;;;21.50;72.40;;;;;;5027152;28;20546;-57
2022/06/09 00:36:32;;;;;;;4.22;3.47;;;21.60;72.60;;;;;;5025262;28;20034;-57
2022/06/09 00:38:59;;;;;;;4.15;3.42;;;21.60;72.70;;;;;;5027783;28;20054;-57
2022/06/09 00:41:28;;;;;;;3.90;3.42;;;21.50;72.80;;;;;;5029235;28;20088;-57
2022/06/09 00:44:18;;;;;;;3.80;3.42;;;21.50;72.90;;;;;;5026133;28;20401;-57
2022/06/09 00:46:46;;;;;;;3.40;3.10;;;21.50;72.80;;;;;;5036327;28;20030;-57
2022/06/09 00:49:22;;;;;;;3.70;3.40;;;21.50;72.90;;;;;;5036124;28;20034;-57
2022/06/09 00:51:53;;;;;;;3.75;3.38;;;21.40;72.90;;;;;;5032972;28;20499;-57
2022/06/09 00:54:25;;;;;;;3.53;3.22;;;21.40;73.00;;;;;;5036617;28;20052;-57
2022/06/09 00:57:02;;;;;;;3.97;3.58;;;21.40;72.90;;;;;;5035360;28;20030;-57
2022/06/09 00:59:29;;;;;;;5.10;3.80;;;21.30;73.00;;;;;;5034387;28;20480;-57
2022/06/09 01:01:57;;;;;;;3.72;3.40;;;21.30;73.10;;;;;;5036113;28;20021;-57
2022/06/09 01:04:23;;;;;;;3.75;3.40;;;21.30;72.90;;;;;;5036139;28;20595;-57
2022/06/09 01:06:56;;;;;;;3.75;2.92;;;21.30;72.90;;;;;;5036009;28;20045;-57
2022/06/09 01:09:25;;;;;;;3.25;2.95;;;21.30;72.70;;;;;;5036251;28;20385;-57
2022/06/09 01:11:53;;;;;;;2.97;2.78;;;21.20;72.30;;;;;;5035862;28;20029;-57
2022/06/09 01:14:23;;;;;;;3.25;2.95;;;21.30;72.20;;;;;;5024170;28;20023;-57
2022/06/09 01:17:32;;;;;;;2.95;2.65;;;21.30;72.10;;;;;;5018861;28;20469;-57
2022/06/09 01:20:00;;;;;;;3.30;3.00;;;21.30;71.90;;;;;;5035267;28;20064;-57
2022/06/09 01:23:00;;;;;;;3.75;3.17;;;21.30;72.00;;;;;;5035661;28;20055;-57
2022/06/09 01:25:59;;;;;;;3.40;3.10;;;21.30;72.20;;;;;;5035628;28;20033;-57
2022/06/09 01:28:51;;;;;;;3.92;3.47;;;21.30;72.20;;;;;;5035636;28;20025;-57
2022/06/09 01:31:26;;;;;;;3.58;3.17;;;21.30;72.40;;;;;;5033430;28;20022;-57
2022/06/09 01:34:07;;;;;;;3.58;3.28;;;21.30;72.50;;;;;;5022883;28;20445;-57
2022/06/09 01:36:46;;;;;;;4.25;3.60;;;21.20;72.70;;;;;;5035234;28;20036;-57
2022/06/09 01:39:12;;;;;;;4.93;3.40;;;21.20;72.80;;;;;;5035688;28;20026;-57
2022/06/09 01:41:48;;;;;;;3.95;3.55;;;21.20;73.00;;;;;;5035814;28;20112;-57
2022/06/09 01:44:17;;;;;;;3.47;3.17;;;21.10;73.10;;;;;;5035482;28;20550;-57
2022/06/09 01:46:44;;;;;;;3.83;3.42;;;21.10;73.30;;;;;;5034870;28;20036;-57
2022/06/09 01:49:19;;;;;;;3.58;3.28;;;21.10;73.30;;;;;;5031733;28;20033;-57
2022/06/09 01:51:47;;;;;;;3.55;3.25;;;21.10;73.30;;;;;;5027821;28;20033;-57
2022/06/09 01:54:21;;;;;;;4.07;3.47;;;21.10;73.40;;;;;;5034709;28;20025;-57
2022/06/09 01:57:08;;;;;;;5.00;3.08;;;21.10;73.30;;;;;;5035004;28;20029;-57
2022/06/09 01:59:42;;;;;;;3.85;3.45;;;21.00;73.30;;;;;;5035100;28;20022;-57
2022/06/09 02:02:13;;;;;;;3.88;3.53;;;21.00;73.30;;;;;;5034906;28;20040;-57
2022/06/09 02:04:50;;;;;;;3.72;3.33;;;21.00;73.50;;;;;;5028600;28;20108;-57
2022/06/09 02:07:18;;;;;;;4.65;3.53;;;21.00;73.50;;;;;;5024817;28;20033;-57
2022/06/09 02:09:45;;;;;;;4.45;3.60;;;21.00;73.70;;;;;;5034604;28;20082;-57
2022/06/09 02:12:17;;;;;;;4.18;3.70;;;21.00;73.60;;;;;;5034505;28;20385;-57
2022/06/09 02:14:48;;;;;;;5.05;4.10;;;21.00;74.20;;;;;;5034351;28;20032;-57
2022/06/09 02:17:14;;;;;;;4.65;3.85;;;21.00;73.80;;;;;;5034457;28;20026;-57
2022/06/09 02:19:41;;;;;;;4.68;4.10;;;21.00;73.60;;;;;;5034798;28;20113;-57
2022/06/09 02:22:10;;;;;;;5.80;4.07;;;21.10;73.90;;;;;;5020242;28;20108;-57
2022/06/09 02:24:36;;;;;;;5.60;4.55;;;21.10;73.90;;;;;;5029157;28;20060;-57
2022/06/09 02:27:02;;;;;;;5.10;4.53;;;21.10;73.90;;;;;;5028455;28;20386;-57
2022/06/09 02:29:28;;;;;;;5.18;4.43;;;21.10;73.80;;;;;;5034447;28;20075;-57
2022/06/09 02:31:54;;;;;;;7.30;5.13;;;21.10;73.80;;;;;;5024990;28;20481;-56
2022/06/09 02:34:21;;;;;;;5.38;4.88;;;21.10;73.70;;;;;;5031916;28;20052;-57
2022/06/09 02:36:47;;;;;;;6.85;5.25;;;21.10;73.70;;;;;;5033621;28;20057;-57
2022/06/09 02:39:13;;;;;;;6.10;5.43;;;21.10;73.80;;;;;;5029598;28;20533;-56
2022/06/09 02:41:38;;;;;;;7.30;5.70;;;21.10;74.00;;;;;;5028575;28;20034;-57
2022/06/09 02:44:05;;;;;;;6.07;4.90;;;21.10;74.70;;;;;;5033163;28;20707;-57
2022/06/09 02:46:31;;;;;;;6.75;5.28;;;21.10;74.20;;;;;;5034148;28;20484;-57
2022/06/09 02:48:57;;;;;;;7.03;5.38;;;21.10;74.20;;;;;;5034448;28;20048;-57
2022/06/09 02:51:34;;;;;;;7.28;5.68;;;21.10;74.20;;;;;;5026632;28;20104;-57
2022/06/09 02:54:04;;;;;;;6.97;5.13;;;21.10;74.20;;;;;;5034512;28;20390;-57
2022/06/09 02:56:30;;;;;;;7.63;5.55;;;21.10;74.20;;;;;;5030902;28;20123;-57
2022/06/09 02:58:56;;;;;;;7.07;5.00;;;21.20;74.60;;;;;;5028836;28;20022;-57
2022/06/09 03:01:24;;;;;;;6.05;5.45;;;21.20;74.60;;;;;;5031539;28;20437;-57
2022/06/09 03:03:50;;;;;;;6.07;5.28;;;21.30;74.70;;;;;;5033905;28;20500;-57
2022/06/09 03:06:15;;;;;;;6.65;5.53;;;21.30;74.80;;;;;;5034039;28;20021;-57
2022/06/09 03:08:41;;;;;;;5.95;4.93;;;21.40;74.70;;;;;;5033680;28;20064;-56
2022/06/09 03:11:10;;;;;;;7.78;5.28;;;21.40;74.70;;;;;;5023008;28;20057;-57
2022/06/09 03:13:37;;;;;;;7.65;6.00;;;21.50;74.70;;;;;;5031230;28;20022;-57
2022/06/09 03:16:04;;;;;;;6.60;5.90;;;21.50;74.50;;;;;;5026752;28;20480;-57
2022/06/09 03:18:29;;;;;;;6.70;5.93;;;21.60;74.50;;;;;;5032188;28;20504;-57
2022/06/09 03:20:55;;;;;;;5.55;4.80;;;21.70;74.40;;;;;;5033360;28;20029;-57
2022/06/09 03:23:20;;;;;;;6.50;4.80;;;21.80;74.20;;;;;;5033583;28;20211;-57
2022/06/09 03:25:47;;;;;;;6.30;4.43;;;21.80;73.80;;;;;;5033246;28;20025;-57
2022/06/09 03:28:13;;;;;;;5.75;4.70;;;22.00;73.80;;;;;;5032915;28;20037;-57
2022/06/09 03:30:39;;;;;;;6.82;5.28;;;22.10;74.30;;;;;;5030083;28;20036;-57
2022/06/09 03:33:05;;;;;;;6.10;4.80;;;22.40;75.60;;;;;;5032248;28;20049;-58
2022/06/09 03:35:31;;;;;;;6.75;4.80;;;22.70;76.40;;;;;;5033286;28;20104;-57
2022/06/09 03:37:56;;;;;;;5.20;4.55;;;23.20;76.60;;;;;;5021854;28;20033;-58
2022/06/09 03:40:24;;;;;;;6.57;4.38;;;23.80;75.90;;;;;;5034120;28;20501;-58
2022/06/09 03:42:50;;;;;;;4.53;3.78;;;24.50;74.60;;;;;;5032283;28;20069;-57
2022/06/09 03:45:16;;;;;;;3.97;3.38;;;25.30;73.20;;;;;;5033572;28;20436;-59
2022/06/09 03:47:42;;;;;;;3.53;3.22;;;26.30;71.60;;;;;;5032532;28;20038;-59
2022/06/09 03:50:13;;;;;;;3.10;2.80;;;27.40;69.70;;;;;;5029741;28;20029;-59
2022/06/09 03:52:39;;;;;;;3.10;2.80;;;28.50;67.90;;;;;;5032900;28;20034;-59
2022/06/09 03:55:05;;;;;;;3.45;3.15;;;29.50;65.90;;;;;;5033358;28;20033;-58
2022/06/09 03:57:31;;;;;;;4.55;3.38;;;30.40;64.10;;;;;;5033195;28;20088;-58
2022/06/09 03:59:56;;;;;;;4.28;3.80;;;31.40;62.70;;;;;;5020502;28;20030;-59
2022/06/09 04:02:23;;;;;;;3.60;3.30;;;32.20;61.20;;;;;;5027436;28;20080;-56
2022/06/09 04:04:49;;;;;;;3.65;3.28;;;33.00;59.80;;;;;;5032417;28;20026;-58
2022/06/09 04:07:15;;;;;;;4.40;3.38;;;33.70;58.70;;;;;;5022177;28;20084;-58
2022/06/09 04:09:41;;;;;;;3.30;3.00;;;34.30;57.30;;;;;;5019179;28;20030;-58
2022/06/09 04:12:07;;;;;;;4.03;3.63;;;34.90;56.20;;;;;;5032553;28;20022;-56
2022/06/09 04:14:32;;;;;;;3.75;3.35;;;35.50;55.30;;;;;;5030276;28;20034;-56
2022/06/09 04:16:58;;;;;;;3.70;3.40;;;36.10;54.50;;;;;;5032180;28;20524;-56
2022/06/09 04:19:24;;;;;;;4.07;3.53;;;36.50;53.60;;;;;;5030155;28;20132;-59
2022/06/09 04:21:50;;;;;;;3.47;3.17;;;37.00;53.00;;;;;;5025067;28;20041;-57
2022/06/09 04:24:16;;;;;;;3.50;3.20;;;37.40;52.80;;;;;;5028357;28;20048;-57
2022/06/09 04:26:43;;;;;;;3.35;3.10;;;37.80;51.40;;;;;;5030592;28;20052;-57
2022/06/09 04:29:13;;;;;;;3.38;3.08;;;38.20;50.80;;;;;;5028211;28;20065;-57
2022/06/09 04:31:41;;;;;;;3.28;2.97;;;38.50;50.20;;;;;;5032295;28;20026;-57
2022/06/09 04:34:07;;;;;;;3.90;3.15;;;38.80;49.40;;;;;;5032837;28;20018;-57
2022/06/09 04:36:33;;;;;;;3.33;3.00;;;39.10;48.80;;;;;;5025773;28;20032;-57
2022/06/09 04:39:00;;;;;;;3.30;2.67;;;39.40;48.50;;;;;;5027063;28;20021;-57
2022/06/09 04:41:26;;;;;;;3.50;3.20;;;39.70;48.00;;;;;;5025084;28;20369;-58
2022/06/09 04:43:51;;;;;;;3.50;3.20;;;40.00;47.40;;;;;;5019667;28;20030;-58
2022/06/09 04:46:20;;;;;;;3.28;2.97;;;40.40;47.00;;;;;;5026968;28;20025;-57
2022/06/09 04:48:46;;;;;;;3.45;3.15;;;40.70;46.30;;;;;;5018736;28;20037;-58
2022/06/09 04:51:14;;;;;;;2.90;2.63;;;41.00;46.00;;;;;;5023842;28;20048;-58
2022/06/09 04:53:40;;;;;;;3.42;3.13;;;41.20;45.80;;;;;;5024859;28;20025;-58
2022/06/09 04:56:06;;;;;;;3.08;2.88;;;41.40;45.40;;;;;;5024003;28;20029;-57
2022/06/09 04:58:32;;;;;;;2.78;2.42;;;41.50;45.10;;;;;;5026897;28;20036;-57
2022/06/09 05:00:58;;;;;;;4.00;2.65;;;41.70;44.80;;;;;;5032008;28;20026;-57
2022/06/09 05:03:24;;;;;;;2.65;2.45;;;41.70;44.50;;;;;;5025805;28;20030;-57
2022/06/09 05:05:50;;;;;;;3.10;2.78;;;41.80;44.40;;;;;;5017781;28;20029;-57
2022/06/09 05:08:17;;;;;;;2.95;2.65;;;42.00;44.30;;;;;;5031119;28;20101;-57
2022/06/09 05:10:45;;;;;;;2.80;2.60;;;42.00;43.90;;;;;;5025638;28;20432;-57
2022/06/09 05:13:11;;;;;;;2.70;2.50;;;42.10;43.60;;;;;;5025623;28;20056;-57
2022/06/09 05:15:49;;;;;;;3.08;2.78;;;42.10;43.40;;;;;;5022326;28;20036;-58
2022/06/09 05:18:15;;;;;;;3.05;2.75;;;42.00;42.80;;;;;;5025300;28;20035;-57
2022/06/09 05:20:40;;;;;;;2.60;2.40;;;41.90;42.30;;;;;;5029716;28;20029;-57
2022/06/09 05:23:06;;;;;;;3.08;2.80;;;41.80;42.00;;;;;;5024874;28;20405;-57
2022/06/09 05:25:32;;;;;;;3.03;2.75;;;41.30;42.10;;;;;;5021568;28;20500;-57
2022/06/09 05:27:59;;;;;;;3.33;3.03;;;40.60;42.30;;;;;;5025507;28;20462;-57
2022/06/09 05:30:25;;;;;;;4.20;3.05;;;39.70;42.60;;;;;;5033475;28;20029;-57
2022/06/09 05:32:51;;;;;;;3.67;3.22;;;38.80;43.20;;;;;;5024524;28;20116;-57
2022/06/09 05:35:18;;;;;;;3.80;3.35;;;37.90;44.10;;;;;;5029498;28;20029;-55
2022/06/09 05:46:00;;;;;;;3.92;3.53;;;34.60;47.30;;;;;;5026484;28;20533;-56
2022/06/09 05:48:26;;;;;;;4.07;3.65;;;33.80;48.00;;;;;;5023803;28;20068;-57
2022/06/09 05:50:52;;;;;;;4.50;3.55;;;33.30;48.80;;;;;;5017005;28;20030;-57
2022/06/09 05:53:18;;;;;;;4.18;3.72;;;32.80;49.50;;;;;;5014542;28;20021;-57
2022/06/09 05:55:44;;;;;;;4.40;3.60;;;32.40;50.00;;;;;;5011480;28;20090;-57
2022/06/09 05:58:11;;;;;;;4.32;3.70;;;32.10;50.40;;;;;;5006557;28;20077;-58
2022/06/09 06:00:38;;;;;;;4.40;3.50;;;31.70;51.10;;;;;;5010412;28;20025;-57
2022/06/09 06:03:03;;;;;;;4.60;3.65;;;31.40;51.70;;;;;;5012128;28;20674;-57
2022/06/09 06:08:13;;;;;;;4.00;3.65;;;31.00;52.60;;;;;;5002190;28;20532;-57
2022/06/09 06:10:39;;;;;;;3.97;3.58;;;30.80;52.90;;;;;;5011028;28;20041;-57
2022/06/09 06:13:05;;;;;;;4.45;3.47;;;30.70;53.20;;;;;;5003854;28;20136;-58
2022/06/09 06:15:32;;;;;;;4.80;3.92;;;30.60;53.60;;;;;;5006832;28;20090;-58
2022/06/09 06:18:01;;;;;;;4.82;4.00;;;30.50;53.90;;;;;;5011497;28;20044;-58
2022/06/09 06:20:26;;;;;;;7.20;4.13;;;30.40;54.20;;;;;;5010564;28;21106;-58
2022/06/09 06:22:52;;;;;;;3.92;3.53;;;30.40;54.30;;;;;;5022547;28;20037;-58
2022/06/09 06:25:18;;;;;;;4.00;3.60;;;30.20;54.30;;;;;;5020018;28;20587;-58
2022/06/09 06:27:43;;;;;;;6.85;4.00;;;30.20;54.60;;;;;;5017607;28;20033;-57
2022/06/09 06:30:09;;;;;;;5.05;4.15;;;30.10;54.80;;;;;;5008117;28;20029;-58
2022/06/09 06:32:35;;;;;;;4.38;3.95;;;30.00;55.10;;;;;;5013455;28;20029;-57
2022/06/09 06:35:01;;;;;;;4.22;3.80;;;29.90;55.20;;;;;;5014701;28;20048;-58
2022/06/09 06:37:27;;;;;;;4.00;3.60;;;29.90;55.60;;;;;;5012800;28;20099;-58
2022/06/09 06:39:54;;;;;;;5.10;4.47;;;29.70;55.70;;;;;;5019608;28;20053;-57
2022/06/09 06:42:19;;;;;;;4.78;4.28;;;29.60;55.60;;;;;;5019329;28;20119;-58
2022/06/09 06:44:45;;;;;;;4.90;4.25;;;29.50;55.90;;;;;;5014897;28;20500;-58
2022/06/09 06:47:11;;;;;;;4.28;3.88;;;29.30;55.90;;;;;;5014087;28;20037;-58
2022/06/09 06:49:37;;;;;;;4.20;3.80;;;29.20;56.10;;;;;;5011666;28;20405;-58
2022/06/09 06:52:03;;;;;;;4.78;4.28;;;29.00;56.40;;;;;;5012719;28;20048;-58
2022/06/09 06:54:30;;;;;;;4.63;4.22;;;28.80;56.60;;;;;;5012814;28;20029;-58
2022/06/09 06:56:57;;;;;;;4.80;4.30;;;28.70;56.80;;;;;;5010974;28;20060;-58
2022/06/09 06:59:22;;;;;;;5.57;4.72;;;28.50;57.10;;;;;;5005794;28;20764;-58
2022/06/09 07:01:48;;;;;;;4.68;4.15;;;28.40;57.50;;;;;;5007751;28;20405;-58
2022/06/09 07:04:15;;;;;;;5.10;4.53;;;28.30;57.90;;;;;;5011443;28;20638;-57
2022/06/09 07:06:40;;;;;;;4.85;4.30;;;28.20;58.50;;;;;;5004232;28;20100;-58
2022/06/09 07:09:06;;;;;;;4.70;4.20;;;28.10;58.70;;;;;;4992909;28;20054;-58
2022/06/09 07:11:32;;;;;;;5.10;4.60;;;28.10;58.90;;;;;;5006693;28;20029;-58
2022/06/09 07:13:58;;;;;;;5.07;4.38;;;28.20;59.00;;;;;;5009046;28;20437;-59
2022/06/09 07:16:24;;;;;;;5.00;4.50;;;28.20;59.20;;;;;;5007675;28;20076;-58
2022/06/09 07:18:49;;;;;;;4.70;4.22;;;28.20;59.20;;;;;;5006807;28;20038;-58
2022/06/09 07:21:16;;;;;;;4.97;4.47;;;28.30;59.40;;;;;;5008128;28;20044;-57
2022/06/09 07:23:43;;;;;;;5.22;4.60;;;28.30;59.50;;;;;;5009691;28;20037;-59
2022/06/09 07:26:09;;;;;;;5.68;4.80;;;28.20;59.40;;;;;;5006880;28;20079;-58
2022/06/09 07:28:35;;;;;;;4.63;4.20;;;28.20;59.50;;;;;;5010791;28;20061;-57
2022/06/09 07:31:01;;;;;;;5.22;4.47;;;28.20;59.70;;;;;;5005836;28;20156;-58
2022/06/09 07:33:31;;;;;;;5.07;4.60;;;28.10;59.70;;;;;;5007632;28;20025;-58
2022/06/09 07:35:58;;;;;;;5.53;5.03;;;28.00;59.80;;;;;;5005212;28;20026;-58
2022/06/09 07:38:25;;;;;;;6.30;5.32;;;27.90;59.90;;;;;;5010003;28;20170;-58
2022/06/09 07:40:51;;;;;;;5.30;4.80;;;27.80;60.40;;;;;;5007463;28;20468;-57
2022/06/09 07:43:19;;;;;;;5.45;4.95;;;27.80;60.90;;;;;;5006912;28;20409;-57
2022/06/09 07:45:46;;;;;;;5.43;4.68;;;27.70;61.20;;;;;;5013996;28;20036;-57
2022/06/09 07:48:12;;;;;;;6.03;5.43;;;27.70;61.30;;;;;;5003903;28;20036;-56
2022/06/09 07:50:38;;;;;;;7.22;5.50;;;27.60;61.10;;;;;;5009905;28;20498;-57
2022/06/09 07:53:06;;;;;;;5.68;5.13;;;27.70;61.10;;;;;;5005709;28;20038;-56
2022/06/09 07:55:32;;;;;;;5.90;5.30;;;27.60;61.00;;;;;;5014369;28;20034;-58
2022/06/09 07:57:59;;;;;;;5.97;4.93;;;27.70;61.10;;;;;;5003696;28;20040;-58
2022/06/09 08:00:26;;;;;;;6.60;6.00;;;27.70;61.20;;;;;;5000919;28;20030;-58
2022/06/09 08:02:53;;;;;;;5.97;5.38;;;27.80;61.20;;;;;;5000488;28;20324;-56
2022/06/09 08:05:20;;;;;;;6.25;5.65;;;27.80;61.10;;;;;;4998901;28;20064;-58
2022/06/09 08:07:46;;;;;;;6.55;5.95;;;27.90;61.10;;;;;;5001990;28;20643;-58
2022/06/09 08:10:20;;;;;;;5.97;5.38;;;27.90;61.20;;;;;;5008138;28;20022;-58
2022/06/09 08:12:47;;;;;;;5.75;5.20;;;27.90;61.20;;;;;;5000210;28;20970;-58
2022/06/09 08:15:13;;;;;;;6.85;6.15;;;27.90;61.00;;;;;;5000932;28;20112;-58
2022/06/09 08:17:39;;;;;;;7.28;6.25;;;27.90;60.90;;;;;;5008201;28;20754;-59
2022/06/09 08:20:07;;;;;;;7.03;6.32;;;27.90;60.90;;;;;;5009483;28;20031;-58
2022/06/09 08:22:33;;;;;;;6.60;5.90;;;27.90;60.90;;;;;;5005539;28;20485;-58
2022/06/09 08:24:59;;;;;;;6.65;5.88;;;27.90;60.90;;;;;;5005004;28;20036;-58
2022/06/09 08:27:24;;;;;;;6.88;6.18;;;27.90;60.90;;;;;;5010803;28;20104;-58
2022/06/09 08:29:51;;;;;;;6.68;5.97;;;27.90;60.90;;;;;;5002959;28;20095;-57
2022/06/09 08:32:17;;;;;;;7.03;6.20;;;27.90;60.90;;;;;;4997325;28;20048;-58
2022/06/09 08:34:43;;;;;;;6.15;5.53;;;27.90;60.80;;;;;;5005324;28;20170;-57
2022/06/09 08:37:08;;;;;;;7.07;6.38;;;27.90;60.80;;;;;;5001711;28;20448;-58
2022/06/09 08:39:34;;;;;;;6.97;6.28;;;27.90;60.90;;;;;;5003867;28;20030;-58
2022/06/09 08:42:17;;;;;;;6.32;5.72;;;27.90;60.80;;;;;;5007043;28;20521;-58
2022/06/09 08:45:05;;;;;;;4.60;4.18;;;27.80;59.90;;;;;;5003582;28;20132;-58
2022/06/09 08:47:45;;;;;;;6.00;4.00;;;27.80;58.90;;;;;;5009090;28;20400;-58
2022/06/09 08:50:17;;;;;;;3.27;2.97;;;27.80;57.80;;;;;;5002798;28;20492;-59
2022/06/09 08:52:51;;;;;;;3.53;2.50;;;27.80;57.30;;;;;;5001895;28;20540;-59
2022/06/09 08:55:43;;;;;;;7.13;2.90;;;27.70;56.40;;;;;;4996930;28;20029;-59
2022/06/09 08:58:15;;;;;;;4.00;2.60;;;27.70;55.60;;;;;;4988783;28;20029;-58
2022/06/09 09:00:57;;;;;;;2.22;2.03;;;27.60;55.10;;;;;;4991478;28;20030;-58
2022/06/09 09:03:37;;;;;;;2.50;2.30;;;27.60;54.50;;;;;;4995971;28;21121;-59
2022/06/09 09:06:37;;;;;;;2.40;2.20;;;27.60;54.00;;;;;;5005708;28;20084;-59
2022/06/09 09:09:14;;;;;;;2.90;2.13;;;27.50;53.60;;;;;;5011362;28;20040;-58
2022/06/09 09:12:08;;;;;;;2.33;2.13;;;27.50;53.30;;;;;;5009427;28;20584;-59
2022/06/09 09:14:55;;;;;;;2.58;2.38;;;27.50;53.00;;;;;;5004153;28;20034;-58
2022/06/09 09:17:43;;;;;;;2.38;2.17;;;27.50;53.20;;;;;;5003450;28;20061;-59
2022/06/09 09:20:47;;;;;;;3.08;2.70;;;27.50;53.20;;;;;;5004670;28;20025;-58
2022/06/09 09:23:19;;;;;;;3.17;2.83;;;27.40;53.20;;;;;;4998726;28;20041;-59
2022/06/09 09:26:07;;;;;;;2.75;2.55;;;27.50;53.30;;;;;;5008077;28;20033;-59
2022/06/09 09:28:42;;;;;;;2.92;2.63;;;27.50;53.20;;;;;;5002220;28;20055;-59
2022/06/09 09:31:36;;;;;;;3.67;2.95;;;27.50;53.10;;;;;;5005038;28;20725;-59
2022/06/09 09:34:04;;;;;;;3.00;2.78;;;27.50;53.40;;;;;;5001767;28;20493;-58
2022/06/09 09:36:37;;;;;;;2.70;2.50;;;27.50;53.20;;;;;;5007148;28;20404;-60
2022/06/09 09:39:08;;;;;;;2.85;2.58;;;27.60;53.10;;;;;;5006048;28;20827;-58
2022/06/09 09:41:37;;;;;;;3.33;2.42;;;27.60;53.00;;;;;;5004387;28;20060;-59
2022/06/09 09:44:25;;;;;;;2.80;2.60;;;27.70;53.00;;;;;;5003417;28;20032;-59
2022/06/09 09:46:54;;;;;;;2.70;2.50;;;27.70;52.80;;;;;;5008750;28;20025;-59
2022/06/09 09:49:25;;;;;;;6.80;3.20;;;27.80;53.00;;;;;;5002938;28;20034;-60
2022/06/09 09:51:51;;;;;;;2.10;2.00;;;27.90;53.30;;;;;;5006192;28;20485;-60
2022/06/09 09:54:27;;;;;;;2.35;2.15;;;28.00;53.30;;;;;;5004933;28;21118;-58
2022/06/09 09:57:10;;;;;;;2.08;1.98;;;28.00;53.00;;;;;;5012718;28;20115;-59
2022/06/09 09:59:46;;;;;;;2.08;1.95;;;28.10;52.90;;;;;;5009924;28;20484;-58
2022/06/09 10:08:38;;;;;;;2.00;1.90;;;28.10;52.20;;;;;;4996182;28;20531;-60
2022/06/09 10:13:54;;;;;;;2.05;1.95;;;28.10;52.10;;;;;;5005615;28;20037;-60
2022/06/09 10:16:21;;;;;;;2.13;1.92;;;28.10;52.80;;;;;;5008684;28;20034;-60
2022/06/09 10:18:52;;;;;;;2.13;2.03;;;28.10;52.40;;;;;;5008901;28;20030;-59
2022/06/09 10:21:17;;;;;;;2.47;2.28;;;28.10;52.40;;;;;;4992868;28;20068;-60
2022/06/09 10:23:54;;;;;;;2.50;2.30;;;28.00;52.60;;;;;;4995726;28;20552;-60
2022/06/09 10:26:24;;;;;;;3.45;2.28;;;28.00;52.70;;;;;;5002238;28;20959;-60
2022/06/09 10:28:54;;;;;;;3.25;2.10;;;27.90;52.80;;;;;;5003532;28;20100;-60
2022/06/09 10:31:40;;;;;;;1.98;1.88;;;27.90;53.20;;;;;;4999756;28;23201;-60
2022/06/09 10:34:36;;;;;;;2.33;2.13;;;27.80;53.00;;;;;;4999518;28;20028;-59
2022/06/09 10:37:21;;;;;;;2.30;2.10;;;27.80;52.10;;;;;;4995554;28;20049;-58
2022/06/09 10:40:11;;;;;;;2.75;2.00;;;27.70;52.40;;;;;;4994754;28;20040;-60
2022/06/09 10:42:44;;;;;;;2.70;1.92;;;27.70;52.20;;;;;;5012303;28;20053;-60
2022/06/09 10:45:37;;;;;;;2.03;1.92;;;27.70;51.70;;;;;;5003158;28;20034;-59
2022/06/09 10:56:58;;;;;;;2.13;1.85;;;27.60;52.20;;;;;;5002664;28;20675;-59
2022/06/09 10:59:35;;;;;;;1.92;1.80;;;27.60;52.20;;;;;;5008345;28;20055;-59
2022/06/09 11:02:02;;;;;;;2.10;2.00;;;27.60;52.20;;;;;;4995962;28;20471;-60
2022/06/09 11:04:34;;;;;;;1.65;1.55;;;27.60;52.40;;;;;;5001312;28;20137;-59
2022/06/09 11:07:37;;;;;;;1.80;1.70;;;27.50;52.80;;;;;;4993184;28;20081;-59
2022/06/09 11:10:03;;;;;;;2.75;2.53;;;27.50;53.60;;;;;;5004027;28;20034;-57
2022/06/09 11:12:37;;;;;;;3.13;2.80;;;27.50;54.20;;;;;;5005088;28;20104;-60
2022/06/09 11:15:37;;;;;;;2.58;2.05;;;27.50;54.90;;;;;;5002215;28;20061;-59
2022/06/09 11:18:18;;;;;;;3.05;2.40;;;27.40;55.00;;;;;;5005532;28;20025;-59
2022/06/09 11:20:46;;;;;;;2.50;2.30;;;27.40;54.80;;;;;;4996652;28;20026;-59
2022/06/09 11:23:42;;;;;;;2.70;2.50;;;27.40;55.00;;;;;;4998447;28;20033;-57
2022/06/09 11:26:37;;;;;;;2.60;2.40;;;27.30;55.40;;;;;;5001594;28;20473;-58
2022/06/09 11:29:26;;;;;;;3.30;2.50;;;27.30;55.30;;;;;;5003979;28;20026;-57
2022/06/09 11:32:27;;;;;;;2.20;2.00;;;27.20;55.30;;;;;;5011088;28;20628;-59
2022/06/09 11:35:26;;;;;;;2.60;2.40;;;27.20;55.10;;;;;;5006864;28;20022;-59
2022/06/09 11:37:58;;;;;;;2.50;2.30;;;27.20;55.00;;;;;;5001811;28;20033;-60
2022/06/09 11:40:47;;;;;;;2.58;2.38;;;27.10;54.50;;;;;;4997398;28;20025;-59
2022/06/09 11:43:45;;;;;;;1.95;1.80;;;27.10;54.20;;;;;;5006375;28;20050;-57
2022/06/09 11:46:25;;;;;;;2.25;2.08;;;27.10;54.00;;;;;;5006070;28;20040;-57
2022/06/09 11:48:55;;;;;;;1.90;1.80;;;27.10;53.90;;;;;;5004494;28;20044;-57
2022/06/09 11:51:25;;;;;;;2.25;2.05;;;27.00;53.90;;;;;;5003355;28;20040;-56
2022/06/09 11:53:53;;;;;;;;;;;27.00;53.70;;;;;;4998806;28;20026;-57
2022/06/09 11:56:19;;;;;;;2.53;2.30;;;27.00;54.10;;;;;;4994620;28;19923;-59
2022/06/09 11:59:17;;;;;;;2.58;2.38;;;27.00;53.80;;;;;;4991221;28;20075;-57
2022/06/09 12:01:55;;;;;;;2.90;2.55;;;27.00;53.50;;;;;;4991820;28;20037;-57
2022/06/09 12:04:38;;;;;;;2.47;2.28;;;27.00;53.30;;;;;;4995450;28;20052;-57
2022/06/09 12:07:40;;;;;;;3.05;2.40;;;27.00;53.20;;;;;;5007303;28;20038;-58
2022/06/09 12:10:18;;;;;;;4.45;2.88;;;27.00;53.20;;;;;;4997365;28;20083;-57
2022/06/09 12:13:18;;;;;;;3.13;2.72;;;27.00;53.00;;;;;;5000015;28;20123;-57
2022/06/09 12:16:01;;;;;;;2.35;2.15;;;27.00;52.70;;;;;;4998399;28;20038;-57
2022/06/09 12:18:29;;;;;;;2.28;2.08;;;27.00;52.40;;;;;;5001929;28;20768;-57
2022/06/09 12:21:26;;;;;;;2.80;2.40;;;27.00;52.30;;;;;;5007189;28;20033;-58
2022/06/09 12:24:04;;;;;;;2.05;1.83;;;26.90;51.70;;;;;;4994972;28;23621;-58
2022/06/09 12:26:42;;;;;;;2.03;1.88;;;26.90;51.30;;;;;;4998334;28;20076;-57
2022/06/09 12:29:25;;;;;;;2.40;2.20;;;27.00;50.30;;;;;;4998760;28;20375;-58
2022/06/09 12:32:09;;;;;;;2.08;1.95;;;26.90;49.90;;;;;;5006182;28;20488;-58
2022/06/09 12:34:50;;;;;;;2.20;2.00;;;27.00;50.60;;;;;;5001572;28;20026;-59
2022/06/09 12:37:49;;;;;;;2.67;2.47;;;27.00;50.90;;;;;;5003375;28;20091;-58
2022/06/09 12:40:23;;;;;;;2.63;2.33;;;27.00;51.50;;;;;;5004768;28;20236;-57
2022/06/09 12:42:52;;;;;;;2.70;2.50;;;26.90;52.30;;;;;;5006156;28;20053;-58
2022/06/09 12:45:26;;;;;;;2.33;2.13;;;27.00;52.90;;;;;;5008770;28;20663;-58
2022/06/09 12:47:54;;;;;;;2.40;2.20;;;26.90;52.50;;;;;;5006822;28;20060;-58
2022/06/09 12:50:39;;;;;;;4.10;2.60;;;26.90;53.00;;;;;;5012807;28;20451;-58
2022/06/09 12:53:07;;;;;;;2.85;2.45;;;26.90;53.20;;;;;;5012402;28;20041;-57
2022/06/09 12:55:37;;;;;;;2.63;2.40;;;26.90;53.00;;;;;;5015279;28;20070;-57
2022/06/09 12:58:29;;;;;;;3.03;2.30;;;26.90;52.40;;;;;;4995435;28;20757;-56
2022/06/09 13:00:59;;;;;;;2.40;2.20;;;26.90;52.10;;;;;;4994372;28;20041;-57
2022/06/09 13:03:29;;;;;;;2.70;2.50;;;26.90;52.30;;;;;;4998151;28;21553;-57
2022/06/09 13:05:56;;;;;;;2.60;2.35;;;26.90;51.90;;;;;;5007692;28;20033;-57
2022/06/09 13:08:28;;;;;;;3.13;2.80;;;26.90;52.20;;;;;;5004124;28;20064;-57
2022/06/09 13:14:14;;;;;;;3.47;3.03;;;26.90;52.00;;;;;;5001241;28;20036;-58
2022/06/09 13:16:44;;;;;;;3.90;2.88;;;26.90;51.50;;;;;;5005390;28;20060;-57
2022/06/09 13:19:13;;;;;;;3.60;3.17;;;26.90;51.50;;;;;;4999831;28;20471;-57
2022/06/09 13:21:42;;;;;;;3.05;2.75;;;26.90;51.50;;;;;;5002422;28;20112;-58
2022/06/09 13:24:21;;;;;;;4.78;3.20;;;26.90;52.20;;;;;;5001095;28;20103;-57
2022/06/09 13:26:48;;;;;;;4.10;3.20;;;26.90;51.60;;;;;;5003918;28;20045;-57
2022/06/09 13:29:22;;;;;;;3.45;3.13;;;26.90;51.50;;;;;;5007340;28;20112;-55
2022/06/09 13:31:51;;;;;;;5.63;3.70;;;26.90;51.60;;;;;;5008229;28;20033;-57
2022/06/09 13:34:23;;;;;;;4.03;3.60;;;26.90;51.40;;;;;;4999510;28;21549;-58
2022/06/09 13:36:54;;;;;;;4.85;3.70;;;26.90;51.40;;;;;;5012223;28;20027;-57
2022/06/09 13:39:36;;;;;;;5.38;3.53;;;26.90;51.30;;;;;;5003212;28;20044;-57
2022/06/09 13:42:10;;;;;;;4.55;3.80;;;26.90;51.40;;;;;;5004005;28;20140;-57
2022/06/09 13:44:42;;;;;;;5.15;4.00;;;26.90;51.40;;;;;;5009242;28;20133;-58